Jackson Evers International Airport
KJAN : now visible

Airfield :











YOU CAN JOIN US ON...

 
LOGIN :

Register | Disclaimer

   EN    FR    IT 

 









Legend :    VFR   Marginal VFR   IFR   Intensive IFR   Very Intensive IFR
Visi :
Ceiling :
>= 8 km
>= 3000ft
5 to 8 km
1000 to 3000 ft
1500m to 5 km
500 to 1000 ft
800 to 1500m
200 to 500 ft
< 800m
< 200 ft
Symbols :   Thunderstorms  Fog  Heavy snow  Heavy precipitations  Wind > 20 kt







- Airport Elevation : 346 ft
- IATA code : JAN


KJAN - Jackson Evers International

CURRENT METAR :
  • 260154Z 13009KT 10SM SCT060 BKN100 24/22 A2988 RMK AO2 SLP114 T02390222

EXPIRED METARs :
  • 260054Z 12006KT 10SM BKN100 24/22 A2987 RMK AO2 RAE07 SLP112 P0000 T02390217
  • 252354Z 13009KT 4SM -RA BR SCT065 BKN085 OVC110 24/22 A2987 RMK AO2 RAE2259B09 SLP110 P0002 60012 T02390222 10311 20239 50004

TAF KJAN
Valid from the 26 at 00:00 until the 27 at 00:00 UTC


252321Z 2600/2624 16012KT P6SM FEW007 BKN030 OVC090
FM260100 16005KT P6SM -SHRA FEW008 SCT015 BKN050
FM260700 16005KT 5SM BR VCSH BKN008 OVC015
FM261400 16005KT P6SM VCSH FEW008 BKN015
FM261500 18007KT 3SM -SHRA OVC007
FM261900 20007KT 6SM -SHRA OVC025
No reported NOTAMs for that airfield.



MET'MAP, your aeronautical weather chart ! - Copyright ORBIFLY December 2007 - Disclaimer

ORBIFLY MET'MAP TEAM :

Programming & Development : Alexandra Zaïnal
Concept & Development : Baudouin d'Aumeries
Co-Development & Prog : Marc-Olivier Méhu
Technical & hardware support : Manuel Goepfert

Contact : metmap@orbifly.com




SOURCES & CREDITS :

   NOAA       Earth
Advisory